Main page
METAR-TAF:

METAR-TAF

Airports :

Quentin Aanenson Field

Luverne, Minnesota, United States

latitude: 43-37-16N, longitude: 096-12-58W, elevation: 1430 ft

Current weather observation

The report was made 31 minutes ago, at 08:35 UTC
Calm wind
Temperature 18°F
Humidity 79%
Pressure 29.96 in. Hg
Visibility: 10 miles
Clear sky

METAR: KLYV 020835Z AUTO 00000KT 10SM CLR M08/M11 A2996 RMK AO2

Time: 03:06 (09:06 UTC)


TAF: missing

Weather observations and forecasts of more than 4000 airports (METAR and TAF reports).

The available stations are represented by yellow and red dots on the map.

Hover mouse over dot to see the name of the station.

Then click to see weather observations and forecasts.

To change the map : click on the green buttons with a black cross to zoom in, on the green button with a dash to zoom out, or on the green arrows for adjacent maps.


METAR-TAF: